Accueil
METAR-TAF:

METAR-TAF

Aéroports :

Aéroport Harry Mwanga Nkumbula de Livingstone

Livingstone, Zambie

latitude: 17-49-18S, longitude: 025-49-22E, altitude: 991 m

METAR: absent

Heure: 22:06 (20:06 UTC)

Prévision

Le bulletin a été fait il y a 10 heures et 6 minutes, à 10:00 UTC
Prévision valable du 20 à 12 UTC au 21 à 18 UTC
Vent 10 kt de est
Visibilité 10 km ou plus
Nuages épars à une hauteur de 4000 ft
A partir de 20 à 1500 UTC
Vent 5 kt de est
Visibilité 10 km ou plus
pas de nuages en-dessous de 1500 mètres et pas de cumulonimbus.

TAF: FLHN 201000Z 2012/2118 09010KT 9999 SCT040 FM201500 09005KT CAVOK

Observations et prévisions météorologiques de plus de 4000 aéroports (messages METAR et TAF).

Les stations disponibles sont représentées par des disques jaunes et rouges sur la carte.

Passer la souris dessus pour voir le nom de la station.

Cliquer dessus pour voir les observations et prévisions météorologiques.

Pour changer de carte: cliquez sur les boutons verts avec une croix noire pour zoomer, sur le bouton vert avec un tiret pour effectuer un zoom arrière, ou sur les flèches vertes pour les cartes adjacentes.


METAR-TAF: